createdAt,value
2022-11-12T00:00:35.118Z,100647.30
2022-11-12T00:05:50.467Z,100653.36
2022-11-12T00:10:54.595Z,100653.15
2022-11-12T00:15:58.663Z,100651.25
2022-11-12T00:21:02.484Z,100652.48
2022-11-12T00:26:06.714Z,100650.05
2022-11-12T00:31:12.354Z,100644.73
2022-11-12T00:36:16.001Z,100643.95
2022-11-12T00:41:19.478Z,100645.30
2022-11-12T00:46:23.224Z,100649.94
2022-11-12T00:51:26.833Z,100647.52
2022-11-12T00:56:35.366Z,100646.31
2022-11-12T01:01:39.930Z,100651.28
2022-11-12T01:06:44.940Z,100651.52
2022-11-12T01:11:48.744Z,100660.05
2022-11-12T01:16:52.304Z,100655.91
2022-11-12T01:21:56.335Z,100655.49
2022-11-12T01:27:00.271Z,100650.69
2022-11-12T01:32:04.505Z,100653.10
2022-11-12T01:37:08.421Z,100654.31
2022-11-12T01:42:12.960Z,100653.16
2022-11-12T01:47:22.329Z,100655.66
2022-11-12T01:52:31.731Z,100651.90
2022-11-12T01:57:38.156Z,100649.17
2022-11-12T02:02:47.158Z,100652.55
2022-11-12T02:07:52.417Z,100651.91
2022-11-12T02:13:15.988Z,100656.13
2022-11-12T02:18:20.088Z,100651.42
2022-11-12T02:23:23.692Z,100656.25
2022-11-12T02:28:28.751Z,100655.66
2022-11-12T02:33:32.905Z,100653.39
2022-11-12T02:38:36.523Z,100652.22
2022-11-12T02:43:40.615Z,100649.39
2022-11-12T02:48:45.067Z,100647.39
2022-11-12T02:53:48.788Z,100644.84
2022-11-12T02:58:52.525Z,100646.41
2022-11-12T03:03:56.347Z,100648.16
2022-11-12T03:09:00.354Z,100642.73
2022-11-12T03:14:04.091Z,100643.32
2022-11-12T03:19:08.863Z,100644.63
2022-11-12T03:24:12.722Z,100650.65
2022-11-12T03:29:16.675Z,100651.10
2022-11-12T03:34:20.295Z,100648.41
2022-11-12T03:39:24.376Z,100647.64
2022-11-12T03:44:28.319Z,100650.55
2022-11-12T03:49:31.869Z,100646.20
2022-11-12T03:54:35.484Z,100643.34
2022-11-12T03:59:39.061Z,100639.72
2022-11-12T04:05:00.740Z,100638.80
2022-11-12T04:10:05.624Z,100646.00
2022-11-12T04:15:10.759Z,100653.15
2022-11-12T04:20:32.899Z,100643.37
2022-11-12T04:26:00.360Z,100648.11
2022-11-12T04:31:04.090Z,100645.90
2022-11-12T04:36:07.803Z,100648.56
2022-11-12T04:41:43.821Z,100645.64
2022-11-12T04:46:47.193Z,100642.77
2022-11-12T04:52:05.856Z,100640.83
2022-11-12T05:00:39.077Z,100647.11
2022-11-12T05:05:44.943Z,100639.96
2022-11-12T05:10:52.138Z,100651.33
2022-11-12T05:16:00.110Z,100643.42
2022-11-12T05:21:21.493Z,100641.80
2022-11-12T05:26:29.526Z,100637.08
2022-11-12T05:31:37.456Z,100639.80
2022-11-12T05:36:46.580Z,100644.92
2022-11-12T05:42:11.787Z,100642.30
2022-11-12T05:47:19.457Z,100651.84
2022-11-12T05:52:24.873Z,100652.61
2022-11-12T05:57:32.065Z,100659.77
2022-11-12T06:02:37.523Z,100664.16
2022-11-12T06:07:44.781Z,100665.16
2022-11-12T06:12:52.247Z,100668.23
2022-11-12T06:17:59.329Z,100667.84
2022-11-12T06:23:06.999Z,100672.42
2022-11-12T06:28:14.154Z,100676.92
2022-11-12T06:33:19.596Z,100680.80
2022-11-12T06:38:26.774Z,100687.80
2022-11-12T06:43:36.189Z,100688.37
2022-11-12T06:48:43.860Z,100687.12
2022-11-12T06:53:52.048Z,100698.57
2022-11-12T06:58:59.377Z,100695.11
2022-11-12T07:04:07.234Z,100694.24
2022-11-12T07:09:14.494Z,100696.52
2022-11-12T07:17:17.734Z,100701.52
2022-11-12T07:22:25.140Z,100706.48
2022-11-12T07:27:33.489Z,100711.94
2022-11-12T07:32:44.993Z,100711.31
2022-11-12T07:37:59.409Z,100707.21
2022-11-12T07:43:06.663Z,100699.52
2022-11-12T07:48:13.829Z,100701.20
2022-11-12T07:53:19.346Z,100702.77
2022-11-12T07:58:27.275Z,100698.77
2022-11-12T08:03:35.274Z,100696.27
2022-11-12T08:08:42.652Z,100695.27
2022-11-12T08:13:51.715Z,100704.52
2022-11-12T08:18:58.962Z,100706.46
2022-11-12T08:24:06.561Z,100709.11
2022-11-12T08:29:13.673Z,100706.92
2022-11-12T08:34:22.660Z,100711.80
2022-11-12T08:39:30.355Z,100719.32
2022-11-12T08:44:37.459Z,100723.04
2022-11-12T08:49:48.028Z,100720.56
2022-11-12T08:54:55.385Z,100725.80
2022-11-12T09:00:03.832Z,100728.27
2022-11-12T09:05:11.941Z,100733.88
2022-11-12T09:10:19.538Z,100733.36
2022-11-12T09:15:37.479Z,100730.30
2022-11-12T09:20:45.545Z,100727.19
2022-11-12T09:25:52.548Z,100730.36
2022-11-12T09:30:58.113Z,100728.96
2022-11-12T09:36:06.121Z,100728.09
2022-11-12T09:41:28.528Z,100731.14
2022-11-12T09:46:41.629Z,100724.56
2022-11-12T09:51:52.594Z,100722.83
2022-11-12T09:59:13.158Z,100724.11
2022-11-12T10:04:40.968Z,100722.89
2022-11-12T10:09:59.994Z,100711.14
2022-11-12T10:15:58.488Z,100712.60
2022-11-12T10:21:17.741Z,100712.02
2022-11-12T10:26:28.324Z,100713.72
2022-11-12T10:31:35.764Z,100713.88
2022-11-12T10:36:45.480Z,100706.98
2022-11-12T10:42:05.706Z,100708.29
2022-11-12T10:57:21.191Z,100694.35
2022-11-12T11:02:25.223Z,100691.36
2022-11-12T11:07:29.436Z,100687.07
2022-11-12T11:12:34.487Z,100683.65
2022-11-12T11:17:38.318Z,100680.80
2022-11-12T11:22:44.584Z,100677.27
2022-11-12T11:28:00.510Z,100673.20
2022-11-12T11:33:23.256Z,100665.70
2022-11-12T11:38:41.110Z,100660.04
2022-11-12T11:43:57.668Z,100660.54
2022-11-12T11:49:26.229Z,100658.20
2022-11-12T11:54:53.800Z,100647.86
2022-11-12T12:00:10.719Z,100645.20
2022-11-12T12:05:28.405Z,100643.40
2022-11-12T12:11:06.951Z,100639.16
2022-11-12T12:16:35.507Z,100642.36
2022-11-12T12:21:44.341Z,100639.07
2022-11-12T12:26:53.766Z,100638.66
2022-11-12T12:32:05.631Z,100635.48
2022-11-12T12:37:22.326Z,100632.89
2022-11-12T12:42:29.553Z,100633.31
2022-11-12T12:47:40.216Z,100628.10
2022-11-12T12:53:06.137Z,100627.64
2022-11-12T12:58:28.718Z,100627.80
2022-11-12T13:03:57.795Z,100626.31
2022-11-12T13:09:05.016Z,100619.36
2022-11-12T13:14:51.848Z,100618.67
2022-11-12T13:20:18.813Z,100620.84
2022-11-12T13:25:28.373Z,100618.35
2022-11-12T13:30:57.132Z,100614.81
2022-11-12T13:36:26.086Z,100615.04
2022-11-12T13:41:49.580Z,100619.90
2022-11-12T13:46:55.389Z,100618.94
2022-11-12T13:52:00.375Z,100616.11
2022-11-12T13:57:28.528Z,100618.67
2022-11-12T14:02:36.828Z,100622.84
2022-11-12T14:07:53.184Z,100623.40
2022-11-12T14:13:12.179Z,100622.13
2022-11-12T14:18:23.227Z,100617.57
2022-11-12T14:23:27.398Z,100616.77
2022-11-12T14:28:34.193Z,100611.63
2022-11-12T14:33:37.711Z,100616.11
2022-11-12T14:38:44.831Z,100618.32
2022-11-12T14:44:07.490Z,100617.13
2022-11-12T14:49:21.041Z,100612.63
2022-11-12T14:54:30.923Z,100609.55
2022-11-12T14:59:35.925Z,100604.96
2022-11-12T15:04:42.824Z,100601.61
2022-11-12T15:09:45.859Z,100603.08
2022-11-12T15:14:49.898Z,100606.84
2022-11-12T15:19:53.611Z,100609.89
2022-11-12T15:25:09.331Z,100610.91
2022-11-12T15:30:19.475Z,100614.35
2022-11-12T15:35:38.034Z,100613.92
2022-11-12T15:40:44.489Z,100611.59
2022-11-12T15:45:50.266Z,100615.20
2022-11-12T15:50:55.300Z,100620.14
2022-11-12T15:55:59.241Z,100624.53
2022-11-12T16:01:03.370Z,100628.13
2022-11-12T16:06:09.939Z,100632.70
2022-11-12T16:11:28.303Z,100639.88
2022-11-12T16:16:33.258Z,100643.63
2022-11-12T16:21:36.841Z,100651.98
2022-11-12T16:26:40.602Z,100647.81
2022-11-12T16:31:44.848Z,100646.99
2022-11-12T16:36:49.484Z,100649.66
2022-11-12T16:41:53.241Z,100651.90
2022-11-12T16:46:56.716Z,100649.95
2022-11-12T16:52:00.298Z,100651.28
2022-11-12T16:57:04.239Z,100656.61
2022-11-12T17:02:14.156Z,100656.84
2022-11-12T17:07:17.761Z,100664.04
2022-11-12T17:12:21.517Z,100664.08
2022-11-12T17:17:25.215Z,100664.59
2022-11-12T17:22:29.776Z,100668.84
2022-11-12T17:27:33.489Z,100663.73
2022-11-12T17:32:37.074Z,100667.61
2022-11-12T17:37:40.613Z,100674.43
2022-11-12T17:42:44.362Z,100676.36
2022-11-12T17:47:48.183Z,100682.98
2022-11-12T17:52:51.683Z,100684.23
2022-11-12T17:57:55.318Z,100680.04
2022-11-12T18:02:59.414Z,100675.56
2022-11-12T18:08:02.929Z,100674.34
2022-11-12T18:13:06.486Z,100677.69
2022-11-12T18:18:09.970Z,100683.35
2022-11-12T18:23:13.669Z,100692.34
2022-11-12T18:35:16.607Z,100702.77
2022-11-12T18:40:21.478Z,100707.17
2022-11-12T18:45:24.976Z,100711.98
2022-11-12T18:50:28.870Z,100721.52
2022-11-12T18:55:32.288Z,100729.77
2022-11-12T19:00:36.353Z,100732.82
2022-11-12T19:05:40.002Z,100733.25
2022-11-12T19:10:43.884Z,100734.77
2022-11-12T19:15:47.717Z,100737.69
2022-11-12T19:20:51.919Z,100738.75
2022-11-12T19:25:55.400Z,100739.23
2022-11-12T19:31:02.958Z,100739.74
2022-11-12T19:36:10.275Z,100742.44
2022-11-12T19:41:19.646Z,100743.08
2022-11-12T19:46:24.851Z,100748.92
2022-11-12T19:51:30.407Z,100747.62
2022-11-12T19:56:34.585Z,100748.21
2022-11-12T20:01:38.139Z,100746.29
2022-11-12T20:06:42.110Z,100747.23
2022-11-12T20:11:45.797Z,100750.14
2022-11-12T20:16:51.099Z,100758.20
2022-11-12T20:21:54.561Z,100762.86
2022-11-12T20:26:58.358Z,100761.77
2022-11-12T20:32:02.336Z,100761.41
2022-11-12T20:37:05.926Z,100756.77
2022-11-12T20:42:09.594Z,100762.52
2022-11-12T20:47:13.363Z,100767.10
2022-11-12T20:52:16.877Z,100768.17
2022-11-12T20:57:20.502Z,100767.16
2022-11-12T21:02:24.524Z,100765.52
2022-11-12T21:07:28.679Z,100764.79
2022-11-12T21:12:32.684Z,100754.70
2022-11-12T21:17:36.286Z,100744.34
2022-11-12T21:22:39.945Z,100743.89
2022-11-12T21:27:44.091Z,100742.24
2022-11-12T21:32:47.638Z,100748.58
2022-11-12T21:37:50.992Z,100753.11
2022-11-12T21:42:54.582Z,100752.08
2022-11-12T21:47:58.285Z,100750.86
2022-11-12T21:53:01.846Z,100746.81
2022-11-12T21:58:05.488Z,100745.93
2022-11-12T22:03:08.933Z,100740.48
2022-11-12T22:08:12.448Z,100738.77
2022-11-12T22:13:31.521Z,100731.87
2022-11-12T22:18:35.850Z,100743.75
2022-11-12T22:23:39.994Z,100741.76
2022-11-12T22:28:44.275Z,100732.43
2022-11-12T22:33:48.343Z,100733.13
2022-11-12T22:38:53.148Z,100729.23
2022-11-12T22:43:58.462Z,100732.84
2022-11-12T22:49:02.616Z,100727.13
2022-11-12T22:54:08.806Z,100723.33
2022-11-12T22:59:12.767Z,100715.15
2022-11-12T23:04:16.282Z,100711.67
2022-11-12T23:09:19.801Z,100706.93
2022-11-12T23:14:23.778Z,100709.48
2022-11-12T23:19:27.648Z,100707.03
2022-11-12T23:24:31.258Z,100706.51
2022-11-12T23:29:34.924Z,100708.61
2022-11-12T23:34:38.430Z,100707.61
2022-11-12T23:39:42.224Z,100701.91
2022-11-12T23:44:46.045Z,100703.20
2022-11-12T23:49:49.777Z,100696.08
2022-11-12T23:54:53.305Z,100697.96
2022-11-12T23:59:56.766Z,100698.42
